createdAt,value
2022-12-18T00:01:40.399Z,102422.00
2022-12-18T00:11:42.443Z,102440.19
2022-12-18T00:21:44.871Z,102423.03
2022-12-18T00:31:46.323Z,102412.66
2022-12-18T00:42:06.025Z,102418.44
2022-12-18T00:52:07.399Z,102432.06
2022-12-18T01:02:08.873Z,102412.97
2022-12-18T01:12:10.376Z,102415.50
2022-12-18T01:22:11.727Z,102416.53
2022-12-18T01:32:13.064Z,102417.59
2022-12-18T01:42:17.120Z,102403.38
2022-12-18T01:52:21.019Z,102404.41
2022-12-18T02:02:23.139Z,102399.69
2022-12-18T02:12:29.168Z,102426.69
2022-12-18T02:22:48.266Z,102408.97
2022-12-18T02:32:55.145Z,102399.22
2022-12-18T02:43:02.806Z,102401.13
2022-12-18T02:53:28.585Z,102396.69
2022-12-18T03:03:48.932Z,102401.97
2022-12-18T03:13:58.699Z,102396.06
2022-12-18T03:24:01.668Z,102383.97
2022-12-18T03:34:07.931Z,102387.94
2022-12-18T03:44:16.858Z,102384.59
2022-12-18T03:54:19.734Z,102380.41
2022-12-18T04:04:23.185Z,102370.50
2022-12-18T04:14:24.549Z,102366.97
2022-12-18T04:24:25.895Z,102370.94
2022-12-18T04:34:27.264Z,102362.56
2022-12-18T04:44:28.593Z,102353.94
2022-12-18T04:54:29.934Z,102351.75
2022-12-18T05:04:31.279Z,102350.84
2022-12-18T05:14:32.747Z,102334.00
2022-12-18T05:24:34.113Z,102332.81
2022-12-18T05:34:35.486Z,102342.09
2022-12-18T05:44:36.834Z,102349.06
2022-12-18T05:54:38.195Z,102359.94
2022-12-18T06:04:39.562Z,102384.75
2022-12-18T06:14:40.994Z,102395.91
2022-12-18T06:24:42.363Z,102400.72
2022-12-18T06:34:43.879Z,102389.56
2022-12-18T06:44:45.243Z,102374.50
2022-12-18T06:54:46.591Z,102355.81
2022-12-18T07:04:50.898Z,102335.31
2022-12-18T07:14:52.258Z,102340.44
2022-12-18T07:24:53.939Z,102341.34
2022-12-18T07:34:55.436Z,102327.91
2022-12-18T07:44:57.294Z,102337.94
2022-12-18T07:54:59.745Z,102340.91
2022-12-18T08:05:01.110Z,102334.59
2022-12-18T08:15:02.531Z,102320.75
2022-12-18T08:25:04.730Z,102303.47
2022-12-18T08:35:07.154Z,102274.56
2022-12-18T08:45:09.179Z,102274.25
2022-12-18T08:55:11.035Z,102285.03
2022-12-18T09:05:12.411Z,102271.59
2022-12-18T09:15:13.774Z,102261.19
2022-12-18T09:25:15.143Z,102247.34
2022-12-18T09:35:16.617Z,102258.38
2022-12-18T09:45:18.931Z,102261.34
2022-12-18T09:55:36.477Z,102251.22
2022-12-18T10:05:43.409Z,102221.22
2022-12-18T10:15:59.918Z,102210.94
2022-12-18T10:26:07.885Z,102203.13
2022-12-18T10:36:09.586Z,102187.81
2022-12-18T10:46:10.911Z,102179.56
2022-12-18T10:56:13.143Z,102166.03
2022-12-18T11:06:22.547Z,102143.53
2022-12-18T11:16:24.751Z,102137.91
2022-12-18T11:26:35.650Z,102118.06
2022-12-18T11:36:44.534Z,102102.94
2022-12-18T11:46:56.225Z,102071.78
2022-12-18T11:57:31.879Z,102077.94
2022-12-18T12:08:16.023Z,102070.38
2022-12-18T12:18:32.535Z,102065.56
2022-12-18T12:28:49.122Z,102045.13
2022-12-18T12:38:56.026Z,102051.13
2022-12-18T12:49:00.601Z,102034.25
2022-12-18T12:59:21.980Z,102029.47
2022-12-18T13:09:23.603Z,102029.66
2022-12-18T13:19:27.308Z,102009.31
2022-12-18T13:29:55.060Z,101992.66
2022-12-18T13:39:56.712Z,101978.53
2022-12-18T13:49:58.575Z,101945.97
2022-12-18T14:00:29.880Z,101941.78
2022-12-18T14:10:48.699Z,101934.06
2022-12-18T14:20:54.246Z,101927.81
2022-12-18T14:30:56.551Z,101911.69
2022-12-18T14:41:13.160Z,101902.44
2022-12-18T14:51:21.081Z,101901.75
2022-12-18T15:01:38.637Z,101892.09
2022-12-18T15:11:42.831Z,101888.31
2022-12-18T15:21:44.480Z,101882.19
2022-12-18T15:32:19.579Z,101871.88
2022-12-18T15:42:39.631Z,101865.06
2022-12-18T15:52:44.866Z,101862.75
2022-12-18T16:02:46.404Z,101860.06
2022-12-18T16:12:48.355Z,101869.53
2022-12-18T16:22:50.411Z,101881.00
2022-12-18T16:32:51.849Z,101870.41
2022-12-18T16:42:53.206Z,101853.66
2022-12-18T16:52:54.571Z,101851.03
2022-12-18T17:02:56.029Z,101831.38
2022-12-18T17:12:57.559Z,101823.03
2022-12-18T17:22:58.908Z,101819.34
2022-12-18T17:33:01.463Z,101813.09
2022-12-18T17:43:02.934Z,101799.78
2022-12-18T17:53:04.302Z,101828.47
2022-12-18T18:03:05.741Z,101831.72
2022-12-18T18:13:42.058Z,101821.44
2022-12-18T18:23:47.773Z,101844.81
2022-12-18T18:33:50.817Z,101831.81
2022-12-18T18:43:56.939Z,101827.50
2022-12-18T18:53:58.330Z,101840.22
2022-12-18T19:04:01.473Z,101844.34
2022-12-18T19:14:05.926Z,101835.91
2022-12-18T19:24:07.712Z,101823.81
2022-12-18T19:34:11.938Z,101818.03
2022-12-18T19:44:17.525Z,101802.16
2022-12-18T19:54:18.928Z,101797.94
2022-12-18T20:04:20.332Z,101800.56
2022-12-18T20:14:22.835Z,101813.09
2022-12-18T20:24:25.144Z,101808.72
2022-12-18T20:34:26.739Z,101812.66
2022-12-18T20:44:29.069Z,101807.56
2022-12-18T20:54:30.436Z,101812.84
2022-12-18T21:04:31.795Z,101809.41
2022-12-18T21:14:33.305Z,101808.66
2022-12-18T21:24:34.678Z,101805.41
2022-12-18T21:34:36.977Z,101806.34
2022-12-18T21:44:41.653Z,101813.03
2022-12-18T21:54:43.770Z,101797.84
2022-12-18T22:04:46.804Z,101777.56
2022-12-18T22:14:48.212Z,101747.19
2022-12-18T22:24:49.531Z,101727.00
2022-12-18T22:34:50.891Z,101728.81
2022-12-18T22:44:52.232Z,101723.38
2022-12-18T22:54:54.478Z,101706.66
2022-12-18T23:04:56.002Z,101695.22
2022-12-18T23:14:57.564Z,101680.59
2022-12-18T23:24:58.967Z,101647.72
2022-12-18T23:35:00.326Z,101640.31
2022-12-18T23:45:03.908Z,101625.91
2022-12-18T23:55:10.705Z,101627.97
